Terminal Aerodrome Forecast
Issued by NWS Cleveland, OH

Home | Current Version | Previous Version | Graphics & Text | Print | Product List | Glossary On
Versions: 1 2 3 4 5 6 7 8 9 10 11 12 13 14 15 16 17 18 19 20 21 22 23 24 25 26
000
FTUS41 KCLE 240200 AAA
TAFCLE
TAF AMD
KCLE 240245Z 2403/2506 20006KT P6SM SKC
     FM241600 21014G22KT P6SM SCT040 BKN150
     FM242100 23018G28KT P6SM VCSH SCT025 OVC040=

USA.gov is the U.S. government's official web portal to all federal, state and local government web resources and services.